Time;durP1;ratioP1;P1;durP2;ratioP2;P2;SDS_P1;SDS_P2;PMS_P1;PMS_P2;Temp;Humidity;BMP_temperature;BMP_pressure;BME280_temperature;BME280_humidity;BME280_pressure;Samples;Min_cycle;Max_cycle;Signal;HPM_P1;HPM_P2
2020/07/17 00:01:59;;;;;;;0.9;0.6;;;;;;;;;;;;;
2020/07/17 00:04:28;;;;;;;1.3;0.6;;;;;;;;;;;;;
2020/07/17 00:06:52;;;;;;;1.3;0.6;;;;;;;;;;;;;
2020/07/17 00:09:17;;;;;;;1.7;0.6;;;;;;;;;;;;;
2020/07/17 00:11:42;;;;;;;1.5;0.5;;;;;;;;;;;;;
2020/07/17 00:14:18;;;;;;;1.4;0.6;;;;;;;;;;;;;
2020/07/17 00:16:43;;;;;;;1.4;0.8;;;;;;;;;;;;;
2020/07/17 00:19:08;;;;;;;1.4;0.6;;;;;;;;;;;;;
2020/07/17 00:21:33;;;;;;;2.7;0.8;;;;;;;;;;;;;
2020/07/17 00:23:58;;;;;;;2.4;0.7;;;;;;;;;;;;;
2020/07/17 00:26:23;;;;;;;1.1;0.8;;;;;;;;;;;;;
2020/07/17 00:28:49;;;;;;;1.5;0.8;;;;;;;;;;;;;
2020/07/17 00:31:13;;;;;;;1.6;0.8;;;;;;;;;;;;;
2020/07/17 00:33:39;;;;;;;1.1;0.7;;;;;;;;;;;;;
2020/07/17 00:36:04;;;;;;;1.4;0.9;;;;;;;;;;;;;
2020/07/17 00:38:29;;;;;;;1;0.6;;;;;;;;;;;;;
2020/07/17 00:40:54;;;;;;;1.6;0.6;;;;;;;;;;;;;
2020/07/17 00:43:21;;;;;;;1.2;0.6;;;;;;;;;;;;;
2020/07/17 00:45:46;;;;;;;1.8;0.8;;;;;;;;;;;;;
2020/07/17 00:48:14;;;;;;;1.8;0.7;;;;;;;;;;;;;
2020/07/17 00:50:39;;;;;;;2.9;0.8;;;;;;;;;;;;;
2020/07/17 00:53:08;;;;;;;1;0.7;;;;;;;;;;;;;
2020/07/17 00:55:37;;;;;;;2.1;0.8;;;;;;;;;;;;;
2020/07/17 00:58:02;;;;;;;1.6;0.8;;;;;;;;;;;;;
2020/07/17 01:00:28;;;;;;;2;1;;;;;;;;;;;;;
2020/07/17 01:02:53;;;;;;;1.7;1;;;;;;;;;;;;;
2020/07/17 01:05:20;;;;;;;1.9;1.1;;;;;;;;;;;;;
2020/07/17 01:07:45;;;;;;;2.1;1;;;;;;;;;;;;;
2020/07/17 01:10:10;;;;;;;1.2;1.1;;;;;;;;;;;;;
2020/07/17 01:12:35;;;;;;;1.9;1;;;;;;;;;;;;;
2020/07/17 01:15:01;;;;;;;3.6;1.3;;;;;;;;;;;;;
2020/07/17 01:17:25;;;;;;;2.3;1.3;;;;;;;;;;;;;
2020/07/17 01:19:52;;;;;;;1.8;1;;;;;;;;;;;;;
2020/07/17 01:22:17;;;;;;;1.9;1.2;;;;;;;;;;;;;
2020/07/17 01:24:42;;;;;;;1.6;0.9;;;;;;;;;;;;;
2020/07/17 01:27:07;;;;;;;1.2;0.9;;;;;;;;;;;;;
2020/07/17 01:29:34;;;;;;;1.8;1.1;;;;;;;;;;;;;
2020/07/17 01:31:59;;;;;;;1.7;0.9;;;;;;;;;;;;;
2020/07/17 01:34:25;;;;;;;2.6;1.2;;;;;;;;;;;;;
2020/07/17 01:36:49;;;;;;;2.1;1.2;;;;;;;;;;;;;
2020/07/17 01:39:15;;;;;;;2.2;1.2;;;;;;;;;;;;;
2020/07/17 01:41:40;;;;;;;2;1;;;;;;;;;;;;;
2020/07/17 01:44:07;;;;;;;1.8;1.1;;;;;;;;;;;;;
2020/07/17 01:46:32;;;;;;;1.7;1;;;;;;;;;;;;;
2020/07/17 01:48:58;;;;;;;1.6;1.1;;;;;;;;;;;;;
2020/07/17 01:51:23;;;;;;;1.8;1.1;;;;;;;;;;;;;
2020/07/17 01:53:48;;;;;;;1.3;0.9;;;;;;;;;;;;;
2020/07/17 01:56:14;;;;;;;1.9;1;;;;;;;;;;;;;
2020/07/17 01:58:40;;;;;;;1.6;1;;;;;;;;;;;;;
2020/07/17 02:01:05;;;;;;;1.8;1.2;;;;;;;;;;;;;
2020/07/17 02:03:32;;;;;;;1.6;1.1;;;;;;;;;;;;;
2020/07/17 02:05:57;;;;;;;2.7;1;;;;;;;;;;;;;
2020/07/17 02:08:23;;;;;;;1.2;1.1;;;;;;;;;;;;;
2020/07/17 02:10:48;;;;;;;2.2;1.2;;;;;;;;;;;;;
2020/07/17 02:13:14;;;;;;;1.7;1.2;;;;;;;;;;;;;
2020/07/17 02:15:39;;;;;;;1.3;1;;;;;;;;;;;;;
2020/07/17 02:18:05;;;;;;;0.9;0.9;;;;;;;;;;;;;
2020/07/17 02:20:30;;;;;;;1.7;1;;;;;;;;;;;;;
2020/07/17 02:22:56;;;;;;;1.4;1;;;;;;;;;;;;;
2020/07/17 02:25:21;;;;;;;1.6;1;;;;;;;;;;;;;
2020/07/17 02:27:47;;;;;;;0.8;0.8;;;;;;;;;;;;;
2020/07/17 02:30:13;;;;;;;1.3;1;;;;;;;;;;;;;
2020/07/17 02:32:39;;;;;;;1.7;1;;;;;;;;;;;;;
2020/07/17 02:35:04;;;;;;;1.7;0.9;;;;;;;;;;;;;
2020/07/17 02:37:30;;;;;;;0.8;0.8;;;;;;;;;;;;;
2020/07/17 02:39:55;;;;;;;1.3;0.7;;;;;;;;;;;;;
2020/07/17 02:42:21;;;;;;;1;0.6;;;;;;;;;;;;;
2020/07/17 02:44:46;;;;;;;1.5;0.8;;;;;;;;;;;;;
2020/07/17 02:47:13;;;;;;;1.6;0.6;;;;;;;;;;;;;
2020/07/17 02:49:37;;;;;;;1.4;0.7;;;;;;;;;;;;;
2020/07/17 02:52:03;;;;;;;0.9;0.8;;;;;;;;;;;;;
2020/07/17 02:54:28;;;;;;;1.8;0.8;;;;;;;;;;;;;
2020/07/17 02:56:55;;;;;;;0.7;0.7;;;;;;;;;;;;;
2020/07/17 02:59:21;;;;;;;1.5;0.8;;;;;;;;;;;;;
2020/07/17 03:01:48;;;;;;;1.7;1;;;;;;;;;;;;;
2020/07/17 03:04:12;;;;;;;1.4;0.9;;;;;;;;;;;;;
2020/07/17 03:06:39;;;;;;;1.6;0.9;;;;;;;;;;;;;
2020/07/17 03:09:04;;;;;;;1.6;0.9;;;;;;;;;;;;;
2020/07/17 03:11:29;;;;;;;2.5;1;;;;;;;;;;;;;
2020/07/17 03:13:54;;;;;;;1.1;0.8;;;;;;;;;;;;;
2020/07/17 03:16:21;;;;;;;1;0.9;;;;;;;;;;;;;
2020/07/17 03:18:45;;;;;;;1.7;0.9;;;;;;;;;;;;;
2020/07/17 03:21:12;;;;;;;2.3;1;;;;;;;;;;;;;
2020/07/17 03:23:37;;;;;;;3.1;1.4;;;;;;;;;;;;;
2020/07/17 03:26:03;;;;;;;2.7;1.7;;;;;;;;;;;;;
2020/07/17 03:28:28;;;;;;;2.1;1.6;;;;;;;;;;;;;
2020/07/17 03:30:55;;;;;;;2.3;1.3;;;;;;;;;;;;;
2020/07/17 03:33:20;;;;;;;2.9;1.7;;;;;;;;;;;;;
2020/07/17 03:35:46;;;;;;;1.9;1.6;;;;;;;;;;;;;
2020/07/17 03:38:11;;;;;;;1.8;1.7;;;;;;;;;;;;;
2020/07/17 03:40:39;;;;;;;2.6;1.6;;;;;;;;;;;;;
2020/07/17 03:43:04;;;;;;;3.8;2;;;;;;;;;;;;;
2020/07/17 03:45:31;;;;;;;2.1;1.6;;;;;;;;;;;;;
2020/07/17 03:47:56;;;;;;;2.5;1.7;;;;;;;;;;;;;
2020/07/17 03:50:21;;;;;;;2.7;1.9;;;;;;;;;;;;;
2020/07/17 03:52:46;;;;;;;2.8;1.7;;;;;;;;;;;;;
2020/07/17 03:55:17;;;;;;;3.8;1.3;;;;;;;;;;;;;
2020/07/17 03:57:42;;;;;;;1.6;0.9;;;;;;;;;;;;;
2020/07/17 04:02:40;;;;;;;1.3;1.2;;;;;;;14.83;88.1084;939.5331;;;;
2020/07/17 04:05:21;;;;;;;1.4;1.1;;;;;;;14.85;88.31836;939.5458;;;;
2020/07/17 04:07:49;;;;;;;2;1.2;;;;;;;14.83;88.66211;939.4922;;;;
2020/07/17 04:10:14;;;;;;;1.5;1.2;;;;;;;14.75;89.1875;939.5965;;;;
2020/07/17 04:12:41;;;;;;;1.8;1.4;;;;;;;14.81;89.05078;939.5353;;;;
2020/07/17 04:15:11;;;;;;;1.7;1.4;;;;;;;14.83;88.81055;939.5411;;;;
2020/07/17 04:17:36;;;;;;;1.5;1.3;;;;;;;14.78;88.81445;939.5242;;;;
2020/07/17 04:20:10;;;;;;;1.5;1.4;;;;;;;14.78;89.03125;939.4866;;;;
2020/07/17 04:22:36;;;;;;;1.8;1.6;;;;;;;14.8;89.07031;939.5514;;;;
2020/07/17 04:25:14;;;;;;;2.5;1.9;;;;;;;14.74;89.47168;939.5067;;;;
2020/07/17 04:27:40;;;;;;;1.8;1.6;;;;;;;14.72;89.76855;939.5325;;;;
2020/07/17 04:30:09;;;;;;;2.2;1.6;;;;;;;14.63;90.00293;939.5201;;;;
2020/07/17 04:32:34;;;;;;;1.9;1.7;;;;;;;14.68;89.86621;939.5535;;;;
2020/07/17 04:35:00;;;;;;;1.8;1.5;;;;;;;14.81;89.25781;939.5233;;;;
2020/07/17 04:37:25;;;;;;;1.4;1.3;;;;;;;14.91;88.93262;939.5078;;;;
2020/07/17 04:39:52;;;;;;;1.2;1.1;;;;;;;14.99;88.77637;939.4368;;;;
2020/07/17 04:42:17;;;;;;;2;1.1;;;;;;;15.08;88.28516;939.5151;;;;
2020/07/17 04:44:47;;;;;;;1.3;1.1;;;;;;;15.11;87.75;939.4533;;;;
2020/07/17 04:47:11;;;;;;;2.3;1.5;;;;;;;15.06;87.9834;939.5538;;;;
2020/07/17 04:49:40;;;;;;;1.5;1.1;;;;;;;14.96;88.97656;939.5292;;;;
2020/07/17 04:52:05;;;;;;;1.6;1.3;;;;;;;14.93;89.34961;939.6264;;;;
2020/07/17 04:54:30;;;;;;;1.4;1.3;;;;;;;14.98;89.05078;939.5331;;;;
2020/07/17 04:57:02;;;;;;;1.6;1.2;;;;;;;15.04;88.88867;939.6404;;;;
2020/07/17 04:59:31;;;;;;;1.1;1;;;;;;;15.1;87.71191;939.6627;;;;
2020/07/17 05:01:56;;;;;;;1.5;1.2;;;;;;;15.1;87.6543;939.6875;;;;
2020/07/17 05:04:26;;;;;;;3;1.2;;;;;;;15.09;87.49219;939.7068;;;;
2020/07/17 05:06:51;;;;;;;1;0.8;;;;;;;15.01;88.51465;939.7631;;;;
2020/07/17 05:09:22;;;;;;;0.8;0.7;;;;;;;15.13;88.15918;939.7491;;;;
2020/07/17 05:11:47;;;;;;;1.3;0.7;;;;;;;15.23;87.78516;939.7488;;;;
2020/07/17 05:14:12;;;;;;;0.9;0.9;;;;;;;15.33;86.98535;939.7618;;;;
2020/07/17 05:16:37;;;;;;;4.6;1.1;;;;;;;15.41;86.93262;939.7813;;;;
2020/07/17 05:19:02;;;;;;;1;0.9;;;;;;;15.44;86.99512;939.7389;;;;
2020/07/17 05:21:27;;;;;;;1.5;1.1;;;;;;;15.47;86.37891;939.7916;;;;
2020/07/17 05:23:53;;;;;;;1.7;1.1;;;;;;;15.48;85.98828;939.7803;;;;
2020/07/17 05:26:19;;;;;;;1.8;1;;;;;;;15.51;85.49707;939.7352;;;;
2020/07/17 05:28:45;;;;;;;2.5;1;;;;;;;15.55;85.52832;939.775;;;;
2020/07/17 05:31:10;;;;;;;2.2;0.9;;;;;;;15.58;85.7998;939.7587;;;;
2020/07/17 05:33:41;;;;;;;1.5;1;;;;;;;15.61;85.99023;939.8239;;;;
2020/07/17 05:36:06;;;;;;;2;1;;;;;;;15.61;85.59863;939.892;;;;
2020/07/17 05:38:31;;;;;;;2.4;1.1;;;;;;;15.66;85.95215;939.8887;;;;
2020/07/17 05:41:05;;;;;;;1.3;1;;;;;;;15.67;85.9209;939.8816;;;;
2020/07/17 05:43:32;;;;;;;1.8;0.7;;;;;;;15.73;84.88086;939.8754;;;;
2020/07/17 05:45:57;;;;;;;0.7;0.7;;;;;;;15.69;85.40527;939.9359;;;;
2020/07/17 05:48:29;;;;;;;0.7;0.6;;;;;;;15.64;85.30176;939.9163;;;;
2020/07/17 05:50:54;;;;;;;0.8;0.6;;;;;;;;;;;;;
2020/07/17 05:53:19;;;;;;;2.1;1;;;;;;;;;;;;;
2020/07/17 05:55:44;;;;;;;1.7;1;;;;;;;;;;;;;
2020/07/17 05:58:12;;;;;;;0.9;0.7;;;;;;;;;;;;;
2020/07/17 06:00:37;;;;;;;1;0.9;;;;;;;;;;;;;
2020/07/17 06:03:03;;;;;;;2;0.7;;;;;;;;;;;;;
2020/07/17 06:05:27;;;;;;;0.9;0.7;;;;;;;;;;;;;
2020/07/17 06:07:53;;;;;;;1;0.8;;;;;;;;;;;;;
2020/07/17 06:10:18;;;;;;;2.4;0.9;;;;;;;;;;;;;
2020/07/17 06:12:46;;;;;;;3.3;1.3;;;;;;;;;;;;;
2020/07/17 06:15:11;;;;;;;2.4;1.7;;;;;;;;;;;;;
2020/07/17 06:17:36;;;;;;;2.2;1.7;;;;;;;;;;;;;
2020/07/17 06:20:01;;;;;;;2.6;1.9;;;;;;;;;;;;;
2020/07/17 06:22:27;;;;;;;2.6;1.7;;;;;;;;;;;;;
2020/07/17 06:24:52;;;;;;;2.3;1.7;;;;;;;;;;;;;
2020/07/17 06:27:21;;;;;;;1.7;1.4;;;;;;;;;;;;;
2020/07/17 06:29:46;;;;;;;1.1;0.9;;;;;;;;;;;;;
2020/07/17 06:32:11;;;;;;;3;0.7;;;;;;;;;;;;;
2020/07/17 06:34:36;;;;;;;0.5;0.3;;;;;;;;;;;;;
2020/07/17 06:37:02;;;;;;;0.3;0.2;;;;;;;;;;;;;
2020/07/17 06:39:27;;;;;;;2.8;0.6;;;;;;;;;;;;;
2020/07/17 06:41:53;;;;;;;2.3;0.8;;;;;;;;;;;;;
2020/07/17 06:44:18;;;;;;;0.7;0.4;;;;;;;;;;;;;
2020/07/17 06:46:45;;;;;;;1.2;0.7;;;;;;;;;;;;;
2020/07/17 06:49:10;;;;;;;0.7;0.7;;;;;;;;;;;;;
2020/07/17 06:51:35;;;;;;;1.8;0.7;;;;;;;;;;;;;
2020/07/17 06:54:01;;;;;;;0.9;0.7;;;;;;;;;;;;;
2020/07/17 06:56:27;;;;;;;1.6;0.7;;;;;;;;;;;;;
2020/07/17 06:58:52;;;;;;;0.7;0.7;;;;;;;;;;;;;
2020/07/17 07:01:19;;;;;;;1.5;0.8;;;;;;;;;;;;;
2020/07/17 07:03:44;;;;;;;0.8;0.6;;;;;;;;;;;;;
2020/07/17 07:06:09;;;;;;;1.2;0.7;;;;;;;;;;;;;
2020/07/17 07:08:35;;;;;;;2.2;0.8;;;;;;;;;;;;;
2020/07/17 07:11:00;;;;;;;1.1;0.8;;;;;;;;;;;;;
2020/07/17 07:13:25;;;;;;;1.2;0.7;;;;;;;;;;;;;
2020/07/17 07:15:52;;;;;;;1.6;0.6;;;;;;;;;;;;;
2020/07/17 07:18:17;;;;;;;0.6;0.5;;;;;;;;;;;;;
2020/07/17 07:20:42;;;;;;;2.2;0.7;;;;;;;;;;;;;
2020/07/17 07:23:07;;;;;;;1.1;0.6;;;;;;;;;;;;;
2020/07/17 07:25:32;;;;;;;0.9;0.6;;;;;;;;;;;;;
2020/07/17 07:27:57;;;;;;;0.7;0.5;;;;;;;;;;;;;
2020/07/17 07:30:22;;;;;;;1.1;0.5;;;;;;;;;;;;;
2020/07/17 07:32:48;;;;;;;0.8;0.4;;;;;;;;;;;;;
2020/07/17 07:35:13;;;;;;;1;0.5;;;;;;;;;;;;;
2020/07/17 07:37:38;;;;;;;1.1;0.5;;;;;;;;;;;;;
2020/07/17 07:40:03;;;;;;;0.9;0.5;;;;;;;;;;;;;
2020/07/17 07:42:29;;;;;;;1.2;0.6;;;;;;;;;;;;;
2020/07/17 07:44:54;;;;;;;0.8;0.6;;;;;;;;;;;;;
2020/07/17 07:47:21;;;;;;;1;0.5;;;;;;;;;;;;;
2020/07/17 07:49:46;;;;;;;1.3;0.4;;;;;;;;;;;;;
2020/07/17 07:52:12;;;;;;;1;0.5;;;;;;;;;;;;;
2020/07/17 07:54:37;;;;;;;0.8;0.5;;;;;;;;;;;;;
2020/07/17 07:57:03;;;;;;;1.6;0.7;;;;;;;;;;;;;
2020/07/17 07:59:28;;;;;;;0.7;0.4;;;;;;;;;;;;;
2020/07/17 08:01:55;;;;;;;0.7;0.6;;;;;;;;;;;;;
2020/07/17 08:04:20;;;;;;;1;0.3;;;;;;;;;;;;;
2020/07/17 08:06:45;;;;;;;0.7;0.5;;;;;;;;;;;;;
2020/07/17 08:09:10;;;;;;;1.1;0.5;;;;;;;;;;;;;
2020/07/17 08:11:36;;;;;;;0.5;0.5;;;;;;;;;;;;;
2020/07/17 08:14:01;;;;;;;0.6;0.4;;;;;;;;;;;;;
2020/07/17 08:16:26;;;;;;;0.7;0.5;;;;;;;;;;;;;
2020/07/17 08:18:53;;;;;;;0.5;0.5;;;;;;;;;;;;;
2020/07/17 08:21:18;;;;;;;1.8;0.5;;;;;;;;;;;;;
2020/07/17 08:23:43;;;;;;;0.8;0.5;;;;;;;;;;;;;
2020/07/17 08:26:08;;;;;;;0.7;0.6;;;;;;;;;;;;;
2020/07/17 08:28:34;;;;;;;1.7;0.6;;;;;;;;;;;;;
2020/07/17 08:30:59;;;;;;;1.2;0.5;;;;;;;;;;;;;
2020/07/17 08:33:26;;;;;;;1.1;0.6;;;;;;;;;;;;;
2020/07/17 08:35:51;;;;;;;1.5;0.7;;;;;;;;;;;;;
2020/07/17 08:38:17;;;;;;;1.2;0.6;;;;;;;;;;;;;
2020/07/17 08:40:42;;;;;;;1.1;0.7;;;;;;;;;;;;;
2020/07/17 08:43:07;;;;;;;0.7;0.5;;;;;;;;;;;;;
2020/07/17 08:45:32;;;;;;;1;0.6;;;;;;;;;;;;;
2020/07/17 08:47:58;;;;;;;0.4;0.4;;;;;;;;;;;;;
2020/07/17 08:50:23;;;;;;;2.2;0.6;;;;;;;;;;;;;
2020/07/17 08:52:49;;;;;;;0.6;0.4;;;;;;;;;;;;;
2020/07/17 08:55:14;;;;;;;1.1;0.5;;;;;;;;;;;;;
2020/07/17 08:57:39;;;;;;;0.6;0.4;;;;;;;;;;;;;
2020/07/17 09:00:11;;;;;;;3.2;0.5;;;;;;;;;;;;;
2020/07/17 09:02:29;;;;;;;1.2;0.4;;;;;;;;;;;;;
2020/07/17 09:04:54;;;;;;;0.4;0.4;;;;;;;;;;;;;
2020/07/17 09:07:19;;;;;;;0.5;0.4;;;;;;;;;;;;;
2020/07/17 09:09:45;;;;;;;0.6;0.4;;;;;;;;;;;;;
2020/07/17 09:12:10;;;;;;;1.1;0.4;;;;;;;;;;;;;
2020/07/17 09:14:36;;;;;;;0.4;0.2;;;;;;;;;;;;;
2020/07/17 09:17:02;;;;;;;0.4;0.2;;;;;;;;;;;;;
2020/07/17 09:19:27;;;;;;;0.3;0.2;;;;;;;;;;;;;
2020/07/17 09:21:54;;;;;;;0.8;0.3;;;;;;;;;;;;;
2020/07/17 09:24:19;;;;;;;2.5;0.4;;;;;;;;;;;;;
2020/07/17 09:26:46;;;;;;;0.7;0.4;;;;;;;;;;;;;
2020/07/17 09:29:12;;;;;;;0.5;0.3;;;;;;;;;;;;;
2020/07/17 09:31:37;;;;;;;0.7;0.4;;;;;;;;;;;;;
2020/07/17 09:34:02;;;;;;;1.1;0.3;;;;;;;;;;;;;
2020/07/17 09:36:27;;;;;;;0.9;0.5;;;;;;;;;;;;;
2020/07/17 09:38:52;;;;;;;0.8;0.5;;;;;;;;;;;;;
2020/07/17 09:41:19;;;;;;;0.5;0.4;;;;;;;;;;;;;
2020/07/17 09:43:44;;;;;;;1.9;0.5;;;;;;;;;;;;;
2020/07/17 09:46:11;;;;;;;3.2;1.8;;;;;;;;;;;;;
2020/07/17 09:48:36;;;;;;;7;4.8;;;;;;;;;;;;;
2020/07/17 09:51:03;;;;;;;3.2;1.2;;;;;;;;;;;;;
2020/07/17 09:53:28;;;;;;;2.1;0.6;;;;;;;;;;;;;
2020/07/17 09:55:53;;;;;;;1;0.7;;;;;;;;;;;;;
2020/07/17 09:58:18;;;;;;;2.2;1.3;;;;;;;;;;;;;
2020/07/17 10:00:46;;;;;;;1.3;0.8;;;;;;;;;;;;;
2020/07/17 10:03:11;;;;;;;3;1.5;;;;;;;;;;;;;
2020/07/17 10:05:36;;;;;;;0.6;0.5;;;;;;;;;;;;;
2020/07/17 10:08:02;;;;;;;2.3;0.6;;;;;;;;;;;;;
2020/07/17 10:10:27;;;;;;;0.9;0.7;;;;;;;;;;;;;
2020/07/17 10:12:53;;;;;;;0.5;0.5;;;;;;;;;;;;;
2020/07/17 10:15:23;;;;;;;1.9;0.6;;;;;;;;;;;;;
2020/07/17 10:17:49;;;;;;;1.1;0.7;;;;;;;;;;;;;
2020/07/17 10:20:14;;;;;;;1.7;0.7;;;;;;;;;;;;;
2020/07/17 10:22:39;;;;;;;2;0.9;;;;;;;;;;;;;
2020/07/17 10:25:04;;;;;;;2.5;0.7;;;;;;;;;;;;;
2020/07/17 10:27:30;;;;;;;1.1;0.6;;;;;;;;;;;;;
2020/07/17 10:29:55;;;;;;;1.6;0.6;;;;;;;;;;;;;
2020/07/17 10:32:20;;;;;;;0.6;0.5;;;;;;;;;;;;;
2020/07/17 10:34:46;;;;;;;0.9;0.5;;;;;;;;;;;;;
2020/07/17 10:37:11;;;;;;;0.6;0.4;;;;;;;;;;;;;
2020/07/17 10:39:36;;;;;;;0.8;0.6;;;;;;;;;;;;;
2020/07/17 10:42:01;;;;;;;0.4;0.4;;;;;;;;;;;;;
2020/07/17 10:44:27;;;;;;;0.4;0.4;;;;;;;;;;;;;
2020/07/17 10:46:53;;;;;;;1.3;0.4;;;;;;;;;;;;;
2020/07/17 10:49:17;;;;;;;1.9;0.5;;;;;;;;;;;;;
2020/07/17 10:51:43;;;;;;;0.7;0.5;;;;;;;;;;;;;
2020/07/17 10:54:08;;;;;;;0.9;0.5;;;;;;;;;;;;;
2020/07/17 10:56:34;;;;;;;0.8;0.5;;;;;;;;;;;;;
2020/07/17 10:58:59;;;;;;;1;0.5;;;;;;;;;;;;;
2020/07/17 11:01:24;;;;;;;0.6;0.3;;;;;;;;;;;;;
2020/07/17 11:03:49;;;;;;;0.8;0.4;;;;;;;;;;;;;
2020/07/17 11:06:14;;;;;;;1.4;0.3;;;;;;;;;;;;;
2020/07/17 11:13:47;;;;;;;0.5;0.3;;;;;;;;;;;;;
2020/07/17 11:16:12;;;;;;;0.9;0.2;;;;;;;;;;;;;
2020/07/17 11:18:37;;;;;;;1;0.4;;;;;;;;;;;;;
2020/07/17 11:21:02;;;;;;;0.3;0.2;;;;;;;;;;;;;
2020/07/17 11:23:27;;;;;;;0.2;0.2;;;;;;;;;;;;;
2020/07/17 11:25:53;;;;;;;0.4;0.3;;;;;;;;;;;;;
2020/07/17 11:28:18;;;;;;;0.5;0.4;;;;;;;;;;;;;
2020/07/17 11:30:44;;;;;;;1;0.3;;;;;;;;;;;;;
2020/07/17 11:33:09;;;;;;;0.4;0.3;;;;;;;;;;;;;
2020/07/17 11:35:35;;;;;;;0.4;0.2;;;;;;;;;;;;;
2020/07/17 11:38:00;;;;;;;0.3;0.2;;;;;;;;;;;;;
2020/07/17 11:40:29;;;;;;;0.6;0.3;;;;;;;;;;;;;
2020/07/17 11:42:54;;;;;;;0.3;0.3;;;;;;;;;;;;;
2020/07/17 11:45:22;;;;;;;0.4;0.2;;;;;;;;;;;;;
2020/07/17 11:47:47;;;;;;;0.4;0.3;;;;;;;;;;;;;
2020/07/17 11:50:12;;;;;;;0.5;0.3;;;;;;;;;;;;;
2020/07/17 11:52:37;;;;;;;0.3;0.3;;;;;;;;;;;;;
2020/07/17 11:55:02;;;;;;;1.2;0.6;;;;;;;;;;;;;
2020/07/17 11:57:27;;;;;;;0.5;0.3;;;;;;;;;;;;;
2020/07/17 11:59:52;;;;;;;0.7;0.4;;;;;;;;;;;;;
2020/07/17 12:02:17;;;;;;;1;0.4;;;;;;;;;;;;;
2020/07/17 12:04:42;;;;;;;0.9;0.4;;;;;;;;;;;;;
2020/07/17 12:07:08;;;;;;;0.9;0.6;;;;;;;;;;;;;
2020/07/17 12:09:33;;;;;;;1.2;0.9;;;;;;;;;;;;;
2020/07/17 12:11:58;;;;;;;1;0.7;;;;;;;;;;;;;
2020/07/17 12:14:23;;;;;;;0.5;0.5;;;;;;;;;;;;;
2020/07/17 12:16:48;;;;;;;1.9;0.9;;;;;;;;;;;;;
2020/07/17 12:19:13;;;;;;;1.3;0.8;;;;;;;;;;;;;
2020/07/17 12:21:39;;;;;;;1;0.7;;;;;;;;;;;;;
2020/07/17 12:24:05;;;;;;;1;0.6;;;;;;;;;;;;;
2020/07/17 12:26:30;;;;;;;1.2;0.6;;;;;;;;;;;;;
2020/07/17 12:28:55;;;;;;;0.6;0.6;;;;;;;;;;;;;
2020/07/17 12:31:20;;;;;;;0.8;0.7;;;;;;;;;;;;;
2020/07/17 12:33:46;;;;;;;1.1;0.9;;;;;;;;;;;;;
2020/07/17 12:36:11;;;;;;;0.8;0.8;;;;;;;;;;;;;
2020/07/17 12:38:36;;;;;;;1.1;0.8;;;;;;;;;;;;;
2020/07/17 12:41:01;;;;;;;1.5;0.9;;;;;;;;;;;;;
2020/07/17 12:43:27;;;;;;;1;0.9;;;;;;;;;;;;;
2020/07/17 12:45:52;;;;;;;1.2;1;;;;;;;;;;;;;
2020/07/17 12:48:19;;;;;;;0.8;0.8;;;;;;;;;;;;;
2020/07/17 12:50:44;;;;;;;0.7;0.7;;;;;;;;;;;;;
2020/07/17 12:53:09;;;;;;;1;0.8;;;;;;;;;;;;;
2020/07/17 12:55:34;;;;;;;0.9;0.8;;;;;;;;;;;;;
2020/07/17 12:58:01;;;;;;;0.7;0.7;;;;;;;;;;;;;
2020/07/17 13:00:29;;;;;;;1.5;0.9;;;;;;;;;;;;;
2020/07/17 13:02:54;;;;;;;1.1;1;;;;;;;;;;;;;
2020/07/17 13:05:20;;;;;;;1;0.9;;;;;;;;;;;;;
2020/07/17 13:07:45;;;;;;;2.6;1.2;;;;;;;;;;;;;
2020/07/17 13:10:10;;;;;;;2.1;1.1;;;;;;;;;;;;;
2020/07/17 13:12:35;;;;;;;1.6;1.1;;;;;;;;;;;;;
2020/07/17 13:15:00;;;;;;;1.6;1.2;;;;;;;;;;;;;
2020/07/17 13:17:26;;;;;;;1.2;1.1;;;;;;;;;;;;;
2020/07/17 13:19:51;;;;;;;2;1.3;;;;;;;;;;;;;
2020/07/17 13:22:17;;;;;;;1.7;1;;;;;;;;;;;;;
2020/07/17 13:24:43;;;;;;;1.8;0.9;;;;;;;;;;;;;
2020/07/17 13:27:08;;;;;;;1;0.9;;;;;;;;;;;;;
2020/07/17 13:29:33;;;;;;;1.3;1;;;;;;;;;;;;;
2020/07/17 13:32:00;;;;;;;1.4;1.3;;;;;;;;;;;;;
2020/07/17 13:34:25;;;;;;;3;1.1;;;;;;;;;;;;;
2020/07/17 13:36:50;;;;;;;3.6;1;;;;;;;;;;;;;
2020/07/17 13:39:15;;;;;;;3.7;1.5;;;;;;;;;;;;;
2020/07/17 13:41:41;;;;;;;2.2;1;;;;;;;;;;;;;
2020/07/17 13:44:06;;;;;;;2.8;1.4;;;;;;;;;;;;;
2020/07/17 13:46:31;;;;;;;2.5;0.8;;;;;;;;;;;;;
2020/07/17 13:48:56;;;;;;;1.4;0.9;;;;;;;;;;;;;
2020/07/17 13:51:21;;;;;;;1.3;0.9;;;;;;;;;;;;;
2020/07/17 13:53:47;;;;;;;2.3;1;;;;;;;;;;;;;
2020/07/17 13:56:12;;;;;;;2.1;0.9;;;;;;;;;;;;;
2020/07/17 13:58:38;;;;;;;1.5;1.1;;;;;;;;;;;;;
2020/07/17 14:01:03;;;;;;;2.1;1;;;;;;;;;;;;;
2020/07/17 14:03:29;;;;;;;1.8;0.9;;;;;;;;;;;;;
2020/07/17 14:05:55;;;;;;;1.8;0.8;;;;;;;;;;;;;
2020/07/17 14:08:20;;;;;;;1.4;1;;;;;;;;;;;;;
2020/07/17 14:10:46;;;;;;;2;1;;;;;;;;;;;;;
2020/07/17 14:13:10;;;;;;;1.4;1;;;;;;;;;;;;;
2020/07/17 14:15:37;;;;;;;1.7;1.1;;;;;;;;;;;;;
2020/07/17 14:18:02;;;;;;;1.3;0.9;;;;;;;;;;;;;
2020/07/17 14:20:27;;;;;;;1.6;1;;;;;;;;;;;;;
2020/07/17 14:22:52;;;;;;;2.2;1.1;;;;;;;;;;;;;
2020/07/17 14:25:23;;;;;;;3.9;1.3;;;;;;;;;;;;;
2020/07/17 14:27:48;;;;;;;1.5;1.2;;;;;;;;;;;;;
2020/07/17 14:30:14;;;;;;;1.2;1;;;;;;;;;;;;;
2020/07/17 14:32:39;;;;;;;1.3;1.1;;;;;;;;;;;;;
2020/07/17 14:35:04;;;;;;;1.5;1.1;;;;;;;;;;;;;
2020/07/17 14:37:30;;;;;;;2.7;1.3;;;;;;;;;;;;;
2020/07/17 14:39:55;;;;;;;1.3;1.1;;;;;;;;;;;;;
2020/07/17 14:42:21;;;;;;;2.1;1.2;;;;;;;;;;;;;
2020/07/17 14:44:46;;;;;;;1.4;0.9;;;;;;;;;;;;;
2020/07/17 14:47:11;;;;;;;1.1;1;;;;;;;;;;;;;
2020/07/17 14:49:36;;;;;;;2.8;1.4;;;;;;;;;;;;;
2020/07/17 14:52:01;;;;;;;1.2;1.1;;;;;;;;;;;;;
2020/07/17 14:54:27;;;;;;;1.3;1.2;;;;;;;;;;;;;
2020/07/17 14:56:51;;;;;;;2.4;1.3;;;;;;;;;;;;;
2020/07/17 14:59:17;;;;;;;1.3;1.2;;;;;;;;;;;;;
2020/07/17 15:01:42;;;;;;;1.9;1.2;;;;;;;;;;;;;
2020/07/17 15:04:10;;;;;;;1.9;1.4;;;;;;;;;;;;;
2020/07/17 15:06:34;;;;;;;2;1.5;;;;;;;;;;;;;
2020/07/17 15:09:23;;;;;;;1.3;1.2;;;;;;;;;;;;;
2020/07/17 15:11:24;;;;;;;2.7;1.5;;;;;;;;;;;;;
2020/07/17 15:13:50;;;;;;;1.6;1.3;;;;;;;;;;;;;
2020/07/17 15:16:15;;;;;;;1.5;1.4;;;;;;;;;;;;;
2020/07/17 15:18:40;;;;;;;2;1.6;;;;;;;;;;;;;
2020/07/17 15:21:05;;;;;;;2.7;1.5;;;;;;;;;;;;;
2020/07/17 15:23:30;;;;;;;1.7;1.6;;;;;;;;;;;;;
2020/07/17 15:25:57;;;;;;;1.9;1.7;;;;;;;;;;;;;
2020/07/17 15:28:22;;;;;;;1.4;1.3;;;;;;;;;;;;;
2020/07/17 15:30:49;;;;;;;2.1;1.2;;;;;;;;;;;;;
2020/07/17 15:33:14;;;;;;;3.9;2.1;;;;;;;;;;;;;
2020/07/17 15:35:42;;;;;;;3;2.3;;;;;;;;;;;;;
2020/07/17 15:38:07;;;;;;;3.5;1.6;;;;;;;;;;;;;
2020/07/17 15:40:32;;;;;;;1.7;1.4;;;;;;;;;;;;;
2020/07/17 15:42:57;;;;;;;2.3;1.3;;;;;;;;;;;;;
2020/07/17 15:45:24;;;;;;;2.7;1.4;;;;;;;;;;;;;
2020/07/17 15:47:49;;;;;;;5.1;1.6;;;;;;;;;;;;;
2020/07/17 15:50:14;;;;;;;2.2;1.3;;;;;;;;;;;;;
2020/07/17 15:52:39;;;;;;;3.1;1.2;;;;;;;;;;;;;
2020/07/17 15:55:04;;;;;;;2.4;1.7;;;;;;;;;;;;;
2020/07/17 15:57:30;;;;;;;3.7;1.4;;;;;;;;;;;;;
2020/07/17 15:59:57;;;;;;;4.1;1.7;;;;;;;;;;;;;
2020/07/17 16:02:21;;;;;;;2.2;1.3;;;;;;;;;;;;;
2020/07/17 16:04:49;;;;;;;1.4;1.3;;;;;;;;;;;;;
2020/07/17 16:07:14;;;;;;;2.3;1.3;;;;;;;;;;;;;
2020/07/17 16:09:39;;;;;;;1.9;1.2;;;;;;;;;;;;;
2020/07/17 16:12:07;;;;;;;2.3;1.3;;;;;;;;;;;;;
2020/07/17 16:14:32;;;;;;;1.9;1.4;;;;;;;;;;;;;
2020/07/17 16:16:58;;;;;;;3.4;1.3;;;;;;;;;;;;;
2020/07/17 16:19:23;;;;;;;4.2;1.6;;;;;;;;;;;;;
2020/07/17 16:21:49;;;;;;;3;1.5;;;;;;;;;;;;;
2020/07/17 16:24:14;;;;;;;3.5;1.6;;;;;;;;;;;;;
2020/07/17 16:26:39;;;;;;;2.4;1.8;;;;;;;;;;;;;
2020/07/17 16:29:22;;;;;;;3;1.8;;;;;;;;;;;;;
2020/07/17 16:31:48;;;;;;;1.9;1.5;;;;;;;;;;;;;
2020/07/17 16:34:13;;;;;;;3.1;1.7;;;;;;;;;;;;;
2020/07/17 16:36:38;;;;;;;6.2;2.3;;;;;;;;;;;;;
2020/07/17 16:39:04;;;;;;;4.8;2.1;;;;;;;;;;;;;
2020/07/17 16:41:30;;;;;;;4.7;1.7;;;;;;;;;;;;;
2020/07/17 16:43:55;;;;;;;2.8;1.6;;;;;;;;;;;;;
2020/07/17 16:46:21;;;;;;;2;1.5;;;;;;;;;;;;;
2020/07/17 16:48:46;;;;;;;3.1;1.3;;;;;;;;;;;;;
2020/07/17 16:51:13;;;;;;;2.5;1.4;;;;;;;;;;;;;
2020/07/17 16:53:38;;;;;;;1.8;1.4;;;;;;;;;;;;;
2020/07/17 16:56:04;;;;;;;2.9;1.5;;;;;;;;;;;;;
2020/07/17 16:58:29;;;;;;;2.8;1.4;;;;;;;;;;;;;
2020/07/17 17:00:57;;;;;;;2.6;1.5;;;;;;;;;;;;;
2020/07/17 17:03:22;;;;;;;2.2;1.6;;;;;;;;;;;;;
2020/07/17 17:05:49;;;;;;;1.8;1.3;;;;;;;;;;;;;
2020/07/17 17:08:13;;;;;;;2.4;1.7;;;;;;;;;;;;;
2020/07/17 17:10:41;;;;;;;3.1;1.7;;;;;;;;;;;;;
2020/07/17 17:13:06;;;;;;;3.2;1.6;;;;;;;;;;;;;
2020/07/17 17:15:33;;;;;;;3.8;1.6;;;;;;;;;;;;;
2020/07/17 17:17:58;;;;;;;3.7;1.7;;;;;;;;;;;;;
2020/07/17 17:20:24;;;;;;;3.3;1.9;;;;;;;;;;;;;
2020/07/17 17:22:48;;;;;;;3.4;1.9;;;;;;;;;;;;;
2020/07/17 17:25:14;;;;;;;3.2;1.8;;;;;;;;;;;;;
2020/07/17 17:27:39;;;;;;;2.6;1.6;;;;;;;;;;;;;
2020/07/17 17:30:05;;;;;;;2.1;1.7;;;;;;;;;;;;;
2020/07/17 17:32:30;;;;;;;4.6;2;;;;;;;;;;;;;
2020/07/17 17:34:55;;;;;;;1.7;1.6;;;;;;;;;;;;;
2020/07/17 17:37:20;;;;;;;4.2;1.7;;;;;;;;;;;;;
2020/07/17 17:39:45;;;;;;;3.9;1.6;;;;;;;;;;;;;
2020/07/17 17:42:10;;;;;;;5.5;1.9;;;;;;;;;;;;;
2020/07/17 17:44:36;;;;;;;2.9;1.4;;;;;;;;;;;;;
2020/07/17 17:47:02;;;;;;;2.3;1.4;;;;;;;;;;;;;
2020/07/17 17:49:27;;;;;;;2.1;1.4;;;;;;;;;;;;;
2020/07/17 17:51:53;;;;;;;3.1;1.3;;;;;;;;;;;;;
2020/07/17 17:54:18;;;;;;;2.6;1.7;;;;;;;;;;;;;
2020/07/17 17:56:44;;;;;;;2.6;1.4;;;;;;;;;;;;;
2020/07/17 17:59:09;;;;;;;4.4;1.6;;;;;;;;;;;;;
2020/07/17 18:01:38;;;;;;;2.8;1.7;;;;;;;;;;;;;
2020/07/17 18:04:03;;;;;;;5.8;1.8;;;;;;;;;;;;;
2020/07/17 18:06:28;;;;;;;3.8;2;;;;;;;;;;;;;
2020/07/17 18:08:53;;;;;;;3.1;2.1;;;;;;;;;;;;;
2020/07/17 18:11:19;;;;;;;2;1.7;;;;;;;;;;;;;
2020/07/17 18:13:44;;;;;;;1.7;1.6;;;;;;;;;;;;;
2020/07/17 18:16:09;;;;;;;2.6;1.8;;;;;;;;;;;;;
2020/07/17 18:18:35;;;;;;;3.2;1.7;;;;;;;;;;;;;
2020/07/17 18:21:00;;;;;;;3.6;2;;;;;;;;;;;;;
2020/07/17 18:23:25;;;;;;;2;1.7;;;;;;;;;;;;;
2020/07/17 18:25:52;;;;;;;3.5;2.2;;;;;;;;;;;;;
2020/07/17 18:28:17;;;;;;;3.8;1.9;;;;;;;;;;;;;
2020/07/17 18:30:46;;;;;;;4;3.4;;;;;;;;;;;;;
2020/07/17 18:33:11;;;;;;;5.7;2.9;;;;;;;;;;;;;
2020/07/17 18:35:36;;;;;;;6.2;3;;;;;;;;;;;;;
2020/07/17 18:38:03;;;;;;;3.8;2.9;;;;;;;;;;;;;
2020/07/17 18:40:27;;;;;;;4.2;3.3;;;;;;;;;;;;;
2020/07/17 18:42:52;;;;;;;5.9;3.1;;;;;;;;;;;;;
2020/07/17 18:45:17;;;;;;;4.9;2.8;;;;;;;;;;;;;
2020/07/17 18:47:42;;;;;;;3.1;2.1;;;;;;;;;;;;;
2020/07/17 18:50:07;;;;;;;2.4;1.9;;;;;;;;;;;;;
2020/07/17 18:52:32;;;;;;;1.9;1.8;;;;;;;;;;;;;
2020/07/17 18:54:57;;;;;;;4.5;2.1;;;;;;;;;;;;;
2020/07/17 18:57:23;;;;;;;3;2.1;;;;;;;;;;;;;
2020/07/17 18:59:48;;;;;;;3.3;2.1;;;;;;;;;;;;;
2020/07/17 19:02:14;;;;;;;4.8;2.2;;;;;;;;;;;;;
2020/07/17 19:04:39;;;;;;;5.1;2.5;;;;;;;;;;;;;
2020/07/17 19:07:05;;;;;;;3.8;2.7;;;;;;;;;;;;;
2020/07/17 19:09:30;;;;;;;4.5;2.2;;;;;;;;;;;;;
2020/07/17 19:11:58;;;;;;;4.5;2.1;;;;;;;;;;;;;
2020/07/17 19:14:23;;;;;;;3.3;2.4;;;;;;;;;;;;;
2020/07/17 19:16:48;;;;;;;4;2.1;;;;;;;;;;;;;
2020/07/17 19:19:14;;;;;;;3.6;2.2;;;;;;;;;;;;;
2020/07/17 19:21:39;;;;;;;2.3;2.1;;;;;;;;;;;;;
2020/07/17 19:24:04;;;;;;;3.2;2.4;;;;;;;;;;;;;
2020/07/17 19:26:30;;;;;;;3.3;2.4;;;;;;;;;;;;;
2020/07/17 19:28:56;;;;;;;2.8;2.6;;;;;;;;;;;;;
2020/07/17 19:31:24;;;;;;;4.8;2.5;;;;;;;;;;;;;
2020/07/17 19:33:47;;;;;;;3.6;2.5;;;;;;;;;;;;;
2020/07/17 19:36:12;;;;;;;2.6;2.2;;;;;;;;;;;;;
2020/07/17 19:38:37;;;;;;;3.3;2.3;;;;;;;;;;;;;
2020/07/17 19:41:03;;;;;;;4.2;2.5;;;;;;;;;;;;;
2020/07/17 19:43:28;;;;;;;3.5;2.3;;;;;;;;;;;;;
2020/07/17 19:45:53;;;;;;;3.3;2.8;;;;;;;;;;;;;
2020/07/17 19:48:19;;;;;;;4.7;3.1;;;;;;;;;;;;;
2020/07/17 19:50:44;;;;;;;5.4;3.2;;;;;;;;;;;;;
2020/07/17 19:53:10;;;;;;;3.8;3;;;;;;;;;;;;;
2020/07/17 19:55:35;;;;;;;6.3;3.2;;;;;;;;;;;;;
2020/07/17 19:58:01;;;;;;;4.6;3.5;;;;;;;;;;;;;